Time;durP1;ratioP1;P1;durP2;ratioP2;P2;SDS_P1;SDS_P2;PMS_P1;PMS_P2;Temp;Humidity;BMP_temperature;BMP_pressure;BME280_temperature;BME280_humidity;BME280_pressure;Samples;Min_cycle;Max_cycle;Signal;HPM_P1;HPM_P2
2023/09/08 00:01:05;;;;;;;;;24.00;22.33;;;;;27.47;45.94;101088.66;5096276;27;46697;-69
2023/09/08 00:03:31;;;;;;;;;23.00;22.00;;;;;27.33;46.12;101062.75;5097585;27;45785;-71
2023/09/08 00:05:56;;;;;;;;;23.33;21.33;;;;;27.45;46.06;101096.28;5097299;27;46892;-68
2023/09/08 00:08:23;;;;;;;;;24.00;23.00;;;;;27.43;45.87;101088.34;5097757;27;45462;-68
2023/09/08 00:10:49;;;;;;;;;19.00;19.00;;;;;27.43;46.41;101090.19;5097513;27;46560;-69
2023/09/08 00:13:14;;;;;;;;;24.00;24.00;;;;;27.40;46.71;101094.25;5097756;27;45348;-69
2023/09/08 00:15:39;;;;;;;;;25.67;24.00;;;;;27.36;46.76;101089.53;5097754;27;45467;-70
2023/09/08 00:18:05;;;;;;;;;26.67;22.67;;;;;27.38;46.18;101093.69;5097608;27;45284;-69
2023/09/08 00:20:30;;;;;;;;;22.00;22.00;;;;;27.38;46.90;101096.41;5097022;27;46123;-69
2023/09/08 00:22:55;;;;;;;;;22.67;21.33;;;;;27.35;46.82;101096.91;5096279;27;65128;-70
2023/09/08 00:25:21;;;;;;;;;20.00;20.00;;;;;27.33;46.21;101088.16;5097058;27;49831;-69
2023/09/08 00:27:46;;;;;;;;;22.00;21.00;;;;;27.32;46.66;101094.69;5097348;27;45648;-69
2023/09/08 00:30:12;;;;;;;;;24.67;22.00;;;;;27.24;46.45;101079.53;5096559;27;69251;-70
2023/09/08 00:32:37;;;;;;;;;20.67;20.67;;;;;27.02;46.73;101054.00;5097222;27;45539;-69
2023/09/08 00:35:05;;;;;;;;;23.33;20.67;;;;;27.27;47.27;101094.59;5097201;27;45260;-69
2023/09/08 00:37:31;;;;;;;;;23.67;22.67;;;;;27.21;47.03;101081.91;5097815;27;45461;-69
2023/09/08 00:39:56;;;;;;;;;25.67;23.00;;;;;27.20;47.16;101086.53;5096812;27;55873;-68
2023/09/08 00:42:21;;;;;;;;;24.33;21.67;;;;;27.17;47.51;101089.75;5097240;27;48758;-69
2023/09/08 00:44:47;;;;;;;;;19.33;18.00;;;;;27.19;47.79;101094.97;5097193;27;48039;-68
2023/09/08 00:47:12;;;;;;;;;25.00;22.00;;;;;27.14;47.14;101083.97;5097961;27;45431;-69
2023/09/08 00:49:38;;;;;;;;;23.00;21.00;;;;;27.10;47.46;101077.34;5089287;27;48558;-69
2023/09/08 00:52:03;;;;;;;;;22.33;21.67;;;;;27.11;47.69;101085.28;5100171;27;45439;-70
2023/09/08 00:54:30;;;;;;;;;17.67;16.67;;;;;27.13;47.51;101087.78;5099533;27;45654;-68
2023/09/08 00:56:58;;;;;;;;;25.33;23.33;;;;;27.11;47.99;101090.75;5100814;27;45294;-69
2023/09/08 00:59:24;;;;;;;;;24.33;24.33;;;;;27.08;47.94;101093.16;5099550;27;47831;-68
2023/09/08 01:01:50;;;;;;;;;21.33;20.00;;;;;27.01;48.18;101085.09;5100225;27;45351;-69
2023/09/08 01:04:15;;;;;;;;;27.00;22.33;;;;;27.01;48.13;101078.81;5082025;27;45422;-68
2023/09/08 01:06:41;;;;;;;;;22.00;22.00;;;;;27.05;48.41;101096.38;5100881;27;45563;-68
2023/09/08 01:09:07;;;;;;;;;20.33;20.33;;;;;27.04;48.41;101094.72;5100328;27;45626;-69
2023/09/08 01:11:32;;;;;;;;;21.00;21.00;;;;;26.58;48.18;101020.13;5082091;27;46336;-69
2023/09/08 01:13:57;;;;;;;;;26.67;21.67;;;;;26.97;48.20;101090.19;5100515;27;45277;-69
2023/09/08 01:16:23;;;;;;;;;25.00;22.00;;;;;26.81;48.54;101060.94;5100640;27;45366;-69
2023/09/08 01:18:49;;;;;;;;;23.33;21.67;;;;;26.98;48.26;101086.38;5100149;27;45770;-69
2023/09/08 01:21:50;;;;;;;;;24.33;24.33;;;;;26.94;48.47;101081.66;5100255;27;45266;-68
2023/09/08 01:24:56;;;;;;;;;25.00;23.33;;;;;26.93;48.87;101094.47;5095471;27;45477;-68
2023/09/08 01:27:25;;;;;;;;;23.33;22.00;;;;;26.88;48.63;101080.75;5017268;28;45343;-69
2023/09/08 01:29:53;;;;;;;;;20.67;18.67;;;;;26.89;48.59;101092.50;5016710;28;45479;-68
2023/09/08 01:32:19;;;;;;;;;21.67;21.00;;;;;26.53;48.37;101033.69;5042068;27;45439;-69
2023/09/08 01:34:45;;;;;;;;;22.00;21.00;;;;;26.86;48.39;101088.34;5081249;27;45218;-69
2023/09/08 01:37:10;;;;;;;;;21.33;20.33;;;;;26.86;48.13;101092.97;5100138;27;45466;-68
2023/09/08 01:39:36;;;;;;;;;25.67;24.67;;;;;26.54;48.40;101044.34;5100137;27;46811;-69
2023/09/08 01:42:01;;;;;;;;;24.33;22.33;;;;;26.83;48.68;101088.84;5099584;27;52936;-69
2023/09/08 01:44:26;;;;;;;;;25.33;22.67;;;;;26.83;48.43;101090.72;5099989;27;45362;-68
2023/09/08 01:46:56;;;;;;;;;19.00;18.67;;;;;26.80;48.58;101086.56;5099463;27;51935;-69
2023/09/08 01:49:22;;;;;;;;;25.00;24.00;;;;;26.76;48.77;101090.88;5099261;27;47056;-69
2023/09/08 01:51:47;;;;;;;;;23.33;22.00;;;;;26.74;48.90;101090.28;5099597;27;45486;-69
2023/09/08 01:54:12;;;;;;;;;26.67;26.67;;;;;26.75;49.29;101097.41;5099849;27;45292;-70
2023/09/08 01:56:38;;;;;;;;;23.00;23.00;;;;;26.61;48.92;101066.84;5100101;27;45242;-69
2023/09/08 01:59:04;;;;;;;;;24.67;24.67;;;;;26.66;48.84;101082.50;5098301;27;46172;-69
2023/09/08 02:01:30;;;;;;;;;25.33;22.33;;;;;26.55;48.75;101070.53;5099569;27;45230;-69
2023/09/08 02:03:55;;;;;;;;;27.67;26.00;;;;;26.59;49.44;101077.16;5099450;27;45509;-68
2023/09/08 02:06:20;;;;;;;;;23.00;23.00;;;;;26.65;49.57;101086.28;5100152;27;45267;-69
2023/09/08 02:08:46;;;;;;;;;13.33;13.00;;;;;26.64;49.05;101084.63;5099291;27;48504;-68
2023/09/08 02:11:11;;;;;;;;;19.00;18.00;;;;;26.57;48.97;101073.03;5099461;27;45622;-70
2023/09/08 02:13:36;;;;;;;;;24.33;24.33;;;;;26.60;49.31;101078.00;5099071;27;53618;-69
2023/09/08 02:16:02;;;;;;;;;22.00;20.67;;;;;26.57;49.47;101078.47;5081414;27;45530;-69
2023/09/08 02:18:28;;;;;;;;;23.67;21.33;;;;;26.54;49.46;101078.97;5099357;27;46498;-69
2023/09/08 02:20:53;;;;;;;;;21.67;20.00;;;;;26.15;49.47;101026.88;5098936;27;45590;-68
2023/09/08 02:23:18;;;;;;;;;22.67;21.67;;;;;26.52;49.64;101097.47;5099400;27;45365;-67
2023/09/08 02:25:44;;;;;;;;;20.67;20.67;;;;;26.48;49.93;101094.41;5099313;27;48694;-68
2023/09/08 02:28:09;;;;;;;;;23.67;21.33;;;;;26.36;49.90;101086.22;5098979;27;45601;-68
2023/09/08 02:30:35;;;;;;;;;23.67;23.67;;;;;26.30;49.76;101079.00;5098940;27;53591;-68
2023/09/08 02:33:02;;;;;;;;;21.33;21.33;;;;;26.44;49.81;101106.03;5080783;27;45280;-68
2023/09/08 02:35:28;;;;;;;;;26.33;19.67;;;;;26.39;49.91;101098.53;5098944;27;45467;-69
2023/09/08 02:37:53;;;;;;;;;26.00;23.00;;;;;26.41;49.90;101101.03;5098876;27;45452;-69
2023/09/08 02:40:20;;;;;;;;;26.67;25.00;;;;;26.41;49.98;101103.75;5098965;27;45252;-69
2023/09/08 02:42:45;;;;;;;;;23.00;23.00;;;;;26.33;49.94;101100.31;5080680;27;45424;-69
2023/09/08 02:45:11;;;;;;;;;22.33;22.33;;;;;26.42;49.96;101099.97;5099161;27;45262;-68
2023/09/08 02:47:36;;;;;;;;;21.67;21.33;;;;;26.35;50.12;101100.94;5098808;27;46435;-69
2023/09/08 02:50:03;;;;;;;;;22.00;18.67;;;;;26.30;50.08;101089.06;5080106;27;45675;-69
2023/09/08 02:52:28;;;;;;;;;23.33;20.67;;;;;26.37;50.29;101106.13;5098976;27;45334;-69
2023/09/08 02:54:53;;;;;;;;;24.67;22.00;;;;;26.35;50.19;101100.94;5098735;27;45617;-69
2023/09/08 02:57:18;;;;;;;;;23.67;23.00;;;;;26.32;50.05;101106.84;5098489;27;48110;-70
2023/09/08 02:59:49;;;;;;;;;23.00;21.33;;;;;26.30;50.59;101105.41;5080434;27;45515;-69
2023/09/08 03:02:14;;;;;;;;;22.00;22.00;;;;;26.26;50.08;101110.53;5098744;27;45474;-68
2023/09/08 03:04:40;;;;;;;;;22.67;21.67;;;;;26.23;50.38;101102.81;5098711;27;45245;-69
2023/09/08 03:07:05;;;;;;;;;19.00;19.00;;;;;26.26;50.48;101109.69;5097961;27;62785;-69
2023/09/08 03:09:30;;;;;;;;;20.33;20.33;;;;;26.25;50.55;101108.03;5098109;27;47937;-69
2023/09/08 03:11:55;;;;;;;;;19.33;19.33;;;;;26.18;50.35;101104.59;5098024;27;45441;-69
2023/09/08 03:14:21;;;;;;;;;22.33;20.67;;;;;26.19;50.18;101098.06;5098572;27;45386;-68
2023/09/08 03:16:46;;;;;;;;;22.00;21.33;;;;;26.23;50.59;101102.81;5098278;27;45582;-69
2023/09/08 03:19:11;;;;;;;;;20.00;18.00;;;;;26.23;50.57;101105.56;5097600;27;48089;-69
2023/09/08 03:21:37;;;;;;;;;21.67;19.00;;;;;25.94;50.95;101058.28;5079643;27;47895;-68
2023/09/08 03:24:02;;;;;;;;;20.33;19.67;;;;;26.21;50.81;101102.22;5079892;27;45506;-69
2023/09/08 03:26:27;;;;;;;;;25.00;21.67;;;;;25.90;51.32;101056.28;5097915;27;46449;-69
2023/09/08 03:28:53;;;;;;;;;22.00;20.67;;;;;26.07;51.70;101095.38;5097977;27;45339;-69
2023/09/08 03:31:18;;;;;;;;;23.67;22.00;;;;;26.10;51.37;101099.50;5097684;27;53151;-69
2023/09/08 03:33:43;;;;;;;;;24.33;22.00;;;;;26.01;51.75;101090.84;5098016;27;45602;-70
2023/09/08 03:36:09;;;;;;;;;25.00;23.00;;;;;26.04;51.93;101095.84;5097889;27;45710;-68
2023/09/08 03:38:36;;;;;;;;;26.33;22.67;;;;;25.95;51.86;101089.09;5097831;27;45284;-69
2023/09/08 03:41:02;;;;;;;;;22.33;21.00;;;;;25.87;51.83;101070.38;5079423;27;45342;-68
2023/09/08 03:43:27;;;;;;;;;23.67;22.33;;;;;25.77;51.90;101055.44;5097820;27;45336;-68
2023/09/08 03:45:53;;;;;;;;;26.33;23.00;;;;;25.99;51.72;101095.72;5097590;27;46140;-67
2023/09/08 03:48:18;;;;;;;;;23.00;19.67;;;;;25.93;51.54;101088.50;5097653;27;45324;-69
2023/09/08 03:50:45;;;;;;;;;19.67;19.67;;;;;25.88;51.37;101075.59;5097406;27;45368;-68
2023/09/08 03:53:11;;;;;;;;;12.67;12.67;;;;;25.89;52.08;101084.59;5097823;27;45508;-68
2023/09/08 03:55:36;;;;;;;;;18.67;18.67;;;;;25.93;51.94;101088.50;5097268;27;47310;-68
2023/09/08 03:58:02;;;;;;;;;25.00;20.00;;;;;25.78;52.26;101068.00;5097543;27;45219;-68
2023/09/08 04:00:27;;;;;;;;;24.67;21.33;;;;;25.95;52.06;101095.38;5097441;27;45395;-69
2023/09/08 04:02:52;;;;;;;;;21.00;18.00;;;;;25.94;52.12;101099.16;5097640;27;45445;-69
2023/09/08 04:05:18;;;;;;;;;17.33;17.00;;;;;25.94;52.20;101082.81;5097219;27;45962;-68
2023/09/08 04:07:46;;;;;;;;;23.33;19.33;;;;;25.94;52.20;101090.16;5097575;27;45551;-69
2023/09/08 04:10:12;;;;;;;;;21.00;21.00;;;;;25.48;52.00;101020.97;5097458;27;45481;-69
2023/09/08 04:12:39;;;;;;;;;21.00;19.33;;;;;25.91;52.14;101087.91;5097729;27;45320;-69
2023/09/08 04:15:05;;;;;;;;;24.33;23.33;;;;;25.88;52.48;101089.22;5097234;27;46621;-69
2023/09/08 04:17:30;;;;;;;;;23.00;20.33;;;;;25.84;52.70;101082.59;5097179;27;45271;-68
2023/09/08 04:19:55;;;;;;;;;25.67;24.33;;;;;25.85;52.70;101084.25;5097388;27;45237;-70
2023/09/08 04:22:20;;;;;;;;;26.00;22.33;;;;;25.82;52.81;101081.13;5097641;27;45389;-68
2023/09/08 04:24:46;;;;;;;;;23.00;21.00;;;;;25.76;52.66;101083.75;5101176;27;46474;-68
2023/09/08 04:27:11;;;;;;;;;22.00;21.67;;;;;25.81;52.40;101090.38;5101110;27;45166;-70
2023/09/08 04:29:36;;;;;;;;;23.33;21.33;;;;;25.77;52.72;101079.97;5100611;27;52868;-68
2023/09/08 04:32:08;;;;;;;;;20.67;20.00;;;;;25.78;52.65;101087.06;5100639;27;52023;-68
2023/09/08 04:34:36;;;;;;;;;23.00;20.67;;;;;25.44;52.73;101036.94;5100543;27;45830;-69
2023/09/08 04:37:01;;;;;;;;;20.33;19.00;;;;;25.73;52.67;101089.66;5100881;27;45446;-69
2023/09/08 04:39:27;;;;;;;;;21.67;18.33;;;;;25.48;52.42;101042.75;5100697;27;45446;-69
2023/09/08 04:41:52;;;;;;;;;22.00;19.67;;;;;25.62;52.87;101071.38;5101128;27;45538;-68
2023/09/08 04:44:17;;;;;;;;;19.67;18.67;;;;;25.74;52.64;101090.50;5100657;27;46596;-69
2023/09/08 04:46:43;;;;;;;;;22.33;19.67;;;;;25.71;52.38;101090.97;5100019;27;63802;-68
2023/09/08 04:49:08;;;;;;;;;25.33;20.67;;;;;25.74;52.87;101088.59;5100710;27;45391;-68
2023/09/08 04:51:33;;;;;;;;;23.67;22.00;;;;;25.68;52.38;101091.44;5100506;27;45568;-69
2023/09/08 04:53:59;;;;;;;;;19.00;18.33;;;;;25.60;52.60;101078.13;5100311;27;46484;-68
2023/09/08 04:56:24;;;;;;;;;21.00;19.33;;;;;25.68;52.54;101102.34;5100451;27;45832;-69
2023/09/08 04:58:49;;;;;;;;;17.00;14.33;;;;;25.65;52.56;101098.16;5100131;27;54529;-69
2023/09/08 05:01:15;;;;;;;;;23.33;20.00;;;;;25.27;52.64;101037.88;5100365;27;45794;-68
2023/09/08 05:03:40;;;;;;;;;20.67;19.67;;;;;25.63;52.66;101102.16;5103109;27;50031;-69
2023/09/08 05:06:05;;;;;;;;;18.33;18.33;;;;;25.63;52.98;101103.03;5100096;27;45363;-69
2023/09/08 05:08:30;;;;;;;;;22.33;21.00;;;;;25.64;52.34;101101.97;5100012;27;48105;-69
2023/09/08 05:10:56;;;;;;;;;23.00;18.67;;;;;25.56;52.47;101091.41;5100313;27;45326;-70
2023/09/08 05:13:26;;;;;;;;;19.00;17.67;;;;;25.58;52.46;101102.88;5101222;27;45956;-69
2023/09/08 05:15:52;;;;;;;;;20.67;18.00;;;;;25.58;52.26;101100.16;5100145;27;45384;-68
2023/09/08 05:18:17;;;;;;;;;21.00;20.33;;;;;25.51;52.38;101082.28;5100187;27;45205;-70
2023/09/08 05:20:43;;;;;;;;;18.00;18.00;;;;;25.59;52.41;101104.53;5100032;27;45498;-70
2023/09/08 05:23:08;;;;;;;;;21.33;21.33;;;;;25.58;52.31;101102.88;5099432;27;47363;-69
2023/09/08 05:25:33;;;;;;;;;20.67;17.33;;;;;25.56;52.26;101110.44;5098551;27;65434;-70
2023/09/08 05:27:59;;;;;;;;;16.67;16.67;;;;;25.53;52.51;101113.66;5101381;27;45336;-69
2023/09/08 05:30:24;;;;;;;;;16.67;16.33;;;;;25.41;52.33;101099.16;5099869;27;45584;-69
2023/09/08 05:32:49;;;;;;;;;25.33;18.00;;;;;25.41;52.99;101102.72;5099830;27;47415;-70
2023/09/08 05:35:15;;;;;;;;;17.67;17.67;;;;;25.42;52.47;101103.53;5099239;27;45318;-67
2023/09/08 05:37:40;;;;;;;;;19.33;19.00;;;;;25.26;52.71;101090.63;5099735;27;45275;-68
2023/09/08 05:40:06;;;;;;;;;20.67;20.00;;;;;25.38;53.02;101105.09;5099865;27;45370;-69
2023/09/08 05:42:32;;;;;;;;;18.00;15.67;;;;;25.39;52.74;101115.72;5099967;27;46755;-68
2023/09/08 05:44:57;;;;;;;;;18.33;18.33;;;;;25.43;52.85;101116.13;5099453;27;45467;-69
2023/09/08 05:47:22;;;;;;;;;20.33;19.00;;;;;25.13;52.77;101061.72;5099710;27;45235;-68
2023/09/08 05:49:48;;;;;;;;;20.67;18.00;;;;;25.45;52.44;101109.38;5099341;27;45293;-72
2023/09/08 05:52:13;;;;;;;;;17.33;17.33;;;;;25.47;52.64;101111.88;5098346;27;61628;-69
2023/09/08 05:54:38;;;;;;;;;23.33;23.33;;;;;25.43;52.90;101106.06;5099108;27;47500;-69
2023/09/08 05:57:05;;;;;;;;;18.67;18.67;;;;;25.46;52.82;101113.75;5099728;27;45470;-72
2023/09/08 05:59:31;;;;;;;;;20.67;18.33;;;;;25.18;52.63;101073.56;5099436;27;45229;-68
2023/09/08 06:01:56;;;;;;;;;22.67;21.67;;;;;25.36;53.16;101120.81;5118685;27;46119;-69
2023/09/08 06:04:21;;;;;;;;;21.67;18.33;;;;;25.43;53.01;101121.56;5100898;27;45449;-69
2023/09/08 06:06:47;;;;;;;;;23.67;21.67;;;;;25.46;53.12;101123.81;5119776;27;45551;-68
2023/09/08 06:09:14;;;;;;;;;19.00;19.00;;;;;25.45;53.13;101124.88;5119734;27;45358;-70
2023/09/08 06:11:40;;;;;;;;;19.00;18.00;;;;;25.45;53.05;101124.88;5119373;27;46535;-70
2023/09/08 06:14:05;;;;;;;;;18.00;17.33;;;;;25.47;52.82;101117.31;5100763;27;45301;-70
2023/09/08 06:16:30;;;;;;;;;19.00;19.00;;;;;25.55;52.81;101119.69;5118384;27;45501;-70
2023/09/08 06:18:55;;;;;;;;;19.33;19.33;;;;;25.56;53.03;101132.22;5100791;27;45502;-73
2023/09/08 06:21:21;;;;;;;;;18.67;18.67;;;;;25.57;52.81;101120.28;5086874;27;59007;-68
2023/09/08 06:23:47;;;;;;;;;21.67;20.00;;;;;25.70;52.84;101122.00;5119049;27;45340;-70
2023/09/08 06:26:12;;;;;;;;;21.67;20.33;;;;;25.51;52.56;101061.31;5119155;27;45463;-70
2023/09/08 06:28:38;;;;;;;;;18.67;18.67;;;;;26.09;51.98;101104.13;5101625;27;45417;-69
2023/09/08 06:31:04;;;;;;;;;20.00;19.67;;;;;26.53;51.44;101123.66;5119496;27;46689;-70
2023/09/08 06:33:30;;;;;;;;;21.33;20.00;;;;;26.91;50.17;101132.09;5117724;27;45671;-71
2023/09/08 06:35:55;;;;;;;;;20.67;19.67;;;;;27.29;49.09;101127.94;5111369;27;45253;-70
2023/09/08 06:38:20;;;;;;;;;18.33;16.00;;;;;27.34;48.80;101084.34;5096560;27;45662;-70
2023/09/08 06:40:46;;;;;;;;;22.33;22.33;;;;;27.97;48.15;101126.91;5098518;27;46243;-70
2023/09/08 06:43:11;;;;;;;;;20.00;16.00;;;;;28.37;47.11;101134.91;5103886;27;51220;-70
2023/09/08 06:45:40;;;;;;;;;20.00;18.00;;;;;28.65;46.25;101123.00;5079538;27;45661;-70
2023/09/08 06:48:05;;;;;;;;;21.33;19.67;;;;;29.03;45.08;101126.72;5100908;27;46075;-69
2023/09/08 06:50:31;;;;;;;;;27.67;23.00;;;;;29.34;44.62;101125.94;5097770;27;46769;-70
2023/09/08 06:52:56;;;;;;;;;17.67;16.33;;;;;29.52;43.97;101107.53;5098309;27;45475;-69
2023/09/08 06:55:21;;;;;;;;;20.00;19.00;;;;;29.89;43.49;101133.03;5104980;27;45620;-70
2023/09/08 06:57:47;;;;;;;;;19.67;17.33;;;;;30.12;42.82;101129.09;5114302;27;45420;-70
2023/09/08 07:00:13;;;;;;;;;20.00;18.67;;;;;30.42;42.02;101136.66;5097054;27;67354;-70
2023/09/08 07:02:41;;;;;;;;;19.33;18.33;;;;;30.73;41.32;101136.84;5098109;27;45449;-70
2023/09/08 07:05:08;;;;;;;;;21.67;19.33;;;;;30.72;40.88;101088.53;5097243;27;59919;-69
2023/09/08 07:07:34;;;;;;;;;15.67;15.67;;;;;31.14;39.89;101116.66;5100372;27;45550;-70
2023/09/08 07:10:00;;;;;;;;;17.33;14.67;;;;;31.41;39.04;101124.69;5118201;27;47429;-70
2023/09/08 07:12:25;;;;;;;;;19.00;16.67;;;;;31.68;38.66;101131.84;5106046;27;45600;-70
2023/09/08 07:14:50;;;;;;;;;21.00;20.00;;;;;31.66;38.24;101106.56;5096504;27;46885;-70
2023/09/08 07:17:16;;;;;;;;;16.67;16.67;;;;;32.04;37.72;101124.44;5097116;27;45504;-70
2023/09/08 07:19:41;;;;;;;;;15.33;13.33;;;;;32.31;36.96;101129.63;5084341;27;48112;-70
2023/09/08 07:22:07;;;;;;;;;15.33;14.67;;;;;32.44;36.48;101100.66;5105979;27;45235;-70
2023/09/08 07:24:32;;;;;;;;;21.00;20.00;;;;;32.85;36.62;101118.69;5080771;27;46378;-71
2023/09/08 07:26:57;;;;;;;;;15.00;15.00;;;;;32.97;35.81;101102.63;5097590;27;45506;-70
2023/09/08 07:29:23;;;;;;;;;17.33;15.67;;;;;33.22;35.36;101103.56;5096986;27;46879;-70
2023/09/08 07:31:48;;;;;;;;;17.00;17.00;;;;;33.35;35.08;101111.22;5097703;27;45423;-71
2023/09/08 07:34:13;;;;;;;;;15.00;14.00;;;;;33.72;34.24;101140.16;5097921;27;45323;-71
2023/09/08 07:36:39;;;;;;;;;15.00;14.67;;;;;33.90;33.79;101144.16;5097921;27;45618;-70
2023/09/08 07:39:04;;;;;;;;;12.67;11.33;;;;;34.14;33.58;101137.56;5108009;27;45505;-70
2023/09/08 07:41:29;;;;;;;;;14.00;14.00;;;;;34.50;33.58;101139.97;5100934;27;45477;-69
2023/09/08 07:43:55;;;;;;;;;15.67;14.33;;;;;34.70;32.66;101125.91;5097467;27;50090;-69
2023/09/08 07:46:20;;;;;;;;;14.00;14.00;;;;;35.00;32.23;101140.44;5096854;27;62892;-71
2023/09/08 07:48:45;;;;;;;;;15.67;14.67;;;;;35.36;31.21;101144.34;5096540;27;49191;-72
2023/09/08 07:51:10;;;;;;;;;14.33;12.33;;;;;35.49;31.11;101117.06;5097052;27;45346;-71
2023/09/08 07:53:36;;;;;;;;;13.00;12.67;;;;;35.91;30.41;101144.56;5096897;27;45575;-69
2023/09/08 07:56:01;;;;;;;;;16.33;11.67;;;;;36.24;30.02;101141.72;5097171;27;45540;-71
2023/09/08 07:58:27;;;;;;;;;26.33;24.00;;;;;36.55;29.92;101142.78;5095391;27;46561;-71
2023/09/08 08:00:52;;;;;;;;;15.00;13.67;;;;;36.90;29.17;101128.53;5097299;27;45465;-69
2023/09/08 08:03:17;;;;;;;;;13.67;12.00;;;;;37.26;28.54;101136.88;5083474;27;56203;-69
2023/09/08 08:05:42;;;;;;;;;15.00;12.00;;;;;37.42;28.55;101140.88;5101317;27;45491;-70
2023/09/08 08:08:09;;;;;;;;;13.33;13.33;;;;;37.51;27.67;101140.97;5096670;27;46738;-69
2023/09/08 08:10:35;;;;;;;;;20.00;17.67;;;;;37.25;28.26;101115.78;5096978;27;45269;-71
2023/09/08 08:13:00;;;;;;;;;14.00;13.00;;;;;37.19;28.72;101133.66;5109458;27;45481;-72
2023/09/08 08:15:36;;;;;;;;;15.33;14.00;;;;;37.34;28.30;101138.88;5117321;27;45511;-70
2023/09/08 08:18:03;;;;;;;;;12.67;12.67;;;;;37.22;28.13;101099.75;5101562;27;47549;-69
2023/09/08 08:20:28;;;;;;;;;16.33;13.00;;;;;37.29;27.57;101097.41;5111954;27;45372;-70
2023/09/08 08:22:53;;;;;;;;;16.33;13.67;;;;;37.63;27.89;101142.00;5116653;27;45409;-71
2023/09/08 08:25:19;;;;;;;;;14.00;13.00;;;;;37.81;27.37;101129.09;5116832;27;45387;-70
2023/09/08 08:27:44;;;;;;;;;13.67;13.67;;;;;37.97;27.35;101148.94;5108153;27;64025;-69
2023/09/08 08:30:11;;;;;;;;;12.67;12.00;;;;;37.83;27.98;101142.66;5098779;27;45165;-70
2023/09/08 08:32:36;;;;;;;;;12.00;12.00;;;;;37.66;27.91;101146.97;5097154;27;45448;-71
2023/09/08 08:35:04;;;;;;;;;12.67;11.67;;;;;37.39;28.37;101149.84;5096793;27;45403;-70
2023/09/08 08:37:29;;;;;;;;;14.00;14.00;;;;;37.02;28.59;101146.22;5101526;27;46548;-70
2023/09/08 08:39:55;;;;;;;;;10.00;10.00;;;;;36.86;28.55;101158.81;5100985;27;46441;-70
2023/09/08 08:42:23;;;;;;;;;10.00;10.00;;;;;36.69;29.23;101155.81;5099968;27;49640;-69
2023/09/08 08:44:49;;;;;;;;;13.33;13.33;;;;;36.50;28.96;101156.75;5114814;27;46608;-71
2023/09/08 08:47:16;;;;;;;;;15.33;12.67;;;;;36.40;29.13;101156.13;5102860;27;45863;-71
2023/09/08 08:49:46;;;;;;;;;11.33;11.33;;;;;36.19;29.85;101153.72;5115964;27;45623;-70
2023/09/08 08:52:12;;;;;;;;;14.00;13.00;;;;;36.00;29.99;101130.00;5095319;27;46009;-70
2023/09/08 08:54:42;;;;;;;;;13.00;12.00;;;;;36.07;29.96;101158.13;5096607;27;45518;-71
2023/09/08 08:57:08;;;;;;;;;14.67;12.00;;;;;36.01;29.99;101159.31;5096453;27;47486;-73
2023/09/08 08:59:33;;;;;;;;;15.00;15.00;;;;;35.95;30.55;101162.19;5115969;27;45298;-70
2023/09/08 09:01:59;;;;;;;;;18.00;13.67;;;;;36.09;30.76;101166.94;5111412;27;45548;-71
2023/09/08 09:04:27;;;;;;;;;17.33;13.33;;;;;36.33;29.36;101155.72;5097737;27;45482;-70
2023/09/08 09:06:53;;;;;;;;;13.33;12.33;;;;;36.41;29.58;101158.59;5098491;27;47097;-70
2023/09/08 09:09:20;;;;;;;;;11.67;11.67;;;;;36.49;29.85;101165.38;5108044;27;45565;-77
2023/09/08 09:11:45;;;;;;;;;14.33;13.33;;;;;36.56;29.41;101141.66;5103920;27;45420;-71
2023/09/08 09:14:11;;;;;;;;;14.00;13.67;;;;;36.80;29.51;101110.97;5112328;27;45346;-70
2023/09/08 09:16:44;;;;;;;;;13.67;13.00;;;;;37.18;29.52;101102.34;5120375;27;46588;-72
2023/09/08 09:19:16;;;;;;;;;12.00;11.67;;;;;37.85;28.20;101151.50;5120551;27;45364;-73
2023/09/08 09:21:44;;;;;;;;;10.00;8.67;;;;;38.50;27.04;101157.22;5111321;27;45514;-72
2023/09/08 09:24:17;;;;;;;;;13.67;12.67;;;;;39.20;26.58;101135.97;5087221;27;45229;-71
2023/09/08 09:26:43;;;;;;;;;10.33;10.00;;;;;39.89;25.71;101147.03;5115799;27;46859;-71
2023/09/08 09:29:13;;;;;;;;;12.00;12.00;;;;;40.59;25.54;101153.16;5111418;27;45315;-70
2023/09/08 09:32:07;;;;;;;;;10.33;9.00;;;;;40.95;24.59;101153.44;5111487;27;45326;-70
2023/09/08 09:34:33;;;;;;;;;10.00;10.00;;;;;40.86;24.27;101146.31;5099735;27;45467;-70
2023/09/08 09:36:59;;;;;;;;;10.33;10.00;;;;;40.70;24.59;101155.22;5111140;27;46506;-70
2023/09/08 09:39:25;;;;;;;;;9.33;8.67;;;;;40.30;25.01;101151.16;5098276;27;45494;-69
2023/09/08 09:41:55;;;;;;;;;10.67;9.33;;;;;39.86;25.16;101156.06;5097162;27;45338;-71
2023/09/08 09:44:22;;;;;;;;;10.00;9.67;;;;;39.38;25.62;101143.16;5111297;27;45228;-72
2023/09/08 09:46:48;;;;;;;;;10.00;10.00;;;;;38.97;26.17;101137.22;5099024;27;45513;-71
2023/09/08 09:49:17;;;;;;;;;10.67;10.67;;;;;38.60;26.64;101133.88;5109629;27;45282;-72
2023/09/08 09:51:44;;;;;;;;;12.33;10.33;;;;;38.35;26.98;101152.09;5104651;27;45524;-71
2023/09/08 09:54:11;;;;;;;;;9.67;9.67;;;;;38.03;27.51;101144.88;5112829;27;45308;-71
2023/09/08 09:56:38;;;;;;;;;11.00;11.00;;;;;37.74;27.57;101125.97;5098841;27;45572;-71
2023/09/08 09:59:05;;;;;;;;;18.00;18.00;;;;;37.56;27.61;101130.56;5099074;27;45451;-71
2023/09/08 10:01:32;;;;;;;;;8.33;8.33;;;;;37.11;28.25;101093.66;5107883;27;45625;-72
2023/09/08 10:03:58;;;;;;;;;9.67;9.33;;;;;37.13;27.61;101142.09;5109599;27;45645;-71
2023/09/08 10:06:23;;;;;;;;;11.67;11.00;;;;;36.72;28.62;101116.41;5086326;27;47685;-71
2023/09/08 10:08:51;;;;;;;;;13.00;11.67;;;;;36.54;28.56;101127.31;5104588;27;45493;-71
2023/09/08 10:11:21;;;;;;;;;11.00;11.00;;;;;36.34;29.54;101136.03;5109439;27;45233;-73
2023/09/08 10:13:50;;;;;;;;;12.00;9.67;;;;;35.72;29.27;101058.00;5080578;27;45572;-71
2023/09/08 10:16:19;;;;;;;;;11.67;11.67;;;;;35.81;29.58;101105.97;5090279;27;46657;-70
2023/09/08 10:18:47;;;;;;;;;13.00;11.33;;;;;35.79;30.20;101135.88;5111113;27;45492;-74
2023/09/08 10:21:13;;;;;;;;;10.33;10.33;;;;;35.58;30.00;101126.28;5099550;27;45571;-72
2023/09/08 10:23:42;;;;;;;;;12.33;10.67;;;;;35.38;30.59;101126.63;5098604;27;45463;-74
2023/09/08 10:26:11;;;;;;;;;12.33;11.33;;;;;35.28;30.60;101136.72;5098579;27;45735;-75
2023/09/08 10:28:38;;;;;;;;;8.33;8.33;;;;;35.12;30.82;101127.00;5098632;27;45569;-72
2023/09/08 10:31:05;;;;;;;;;13.33;12.33;;;;;34.88;31.32;101117.97;5099543;27;45523;-72
2023/09/08 10:33:32;;;;;;;;;12.67;11.00;;;;;34.83;31.90;101135.38;5098876;27;45411;-73
2023/09/08 10:35:59;;;;;;;;;11.00;10.67;;;;;34.52;31.42;101112.88;5103989;27;47078;-72
2023/09/08 10:38:29;;;;;;;;;11.33;11.00;;;;;34.59;31.66;101140.13;5098578;27;45526;-72
2023/09/08 10:41:16;;;;;;;;;10.00;10.00;;;;;34.43;31.83;101140.31;5098839;27;45472;-71
2023/09/08 10:44:00;;;;;;;;;10.00;10.00;;;;;34.28;32.15;101140.47;5080284;27;45489;-72
2023/09/08 10:46:30;;;;;;;;;13.33;10.67;;;;;34.20;32.10;101138.31;5110687;27;46538;-70
2023/09/08 10:49:03;;;;;;;;;12.33;11.00;;;;;33.97;32.53;101128.91;5118689;27;45496;-71
2023/09/08 10:51:29;;;;;;;;;11.33;10.67;;;;;33.91;32.67;101151.31;5106396;27;45278;-74
2023/09/08 10:53:54;;;;;;;;;15.00;11.67;;;;;33.77;32.60;101129.06;5079139;27;45393;-71
2023/09/08 10:56:19;;;;;;;;;13.00;12.00;;;;;33.74;33.07;101124.97;5093475;27;46144;-71
2023/09/08 10:58:50;;;;;;;;;13.00;11.33;;;;;33.76;33.06;101128.25;5080536;27;45393;-71
2023/09/08 11:01:17;;;;;;;;;13.00;11.00;;;;;33.62;33.28;101113.47;5108113;27;45247;-71
2023/09/08 11:03:46;;;;;;;;;18.00;15.33;;;;;33.65;33.75;101125.88;5098876;27;45521;-73
2023/09/08 11:06:12;;;;;;;;;14.00;14.00;;;;;33.66;33.85;101119.25;5097770;27;46715;-71